L65EX HE39-LICA
Flight info
| Callsign | L65EX |
|---|---|
| Flight time | N/A |
| Altitude | 40000 |
| Route | MENKU L617 NABSI M872 METRU UL81 LORNO DCT DELIK |
| Aircraft | CL60/M-SBDE1E2E3FGHIJ1J4J5J7M3RWXYZ/LB1V1D1 |
Departure
| Time | N/A |
|---|---|
| Airport | HE39 |
Arrival
| Time | 2026-04-21 19:52 |
|---|---|
| Airport | Lamezia Terme Sant'Eufemia International Airport (LICA) |
| Time | Latitude | Longitude | Altitude | Speed | Heading |
|---|---|---|---|---|---|
| 2026-04-21 16:59 | 30.80820 | 32.04690 | 27 ft | 0 kts | 280° |
| 2026-04-21 17:17 | 30.80820 | 32.04689 | 27 ft | 0 kts | 280° |
| 2026-04-21 17:18 | 30.80821 | 32.04684 | 27 ft | 1 kts | 283° |
| 2026-04-21 17:18 | 30.80823 | 32.04674 | 27 ft | 0 kts | 284° |
| 2026-04-21 17:19 | 30.80825 | 32.04664 | 27 ft | 3 kts | 284° |
| 2026-04-21 17:19 | 30.80834 | 32.04626 | 27 ft | 6 kts | 285° |
| 2026-04-21 17:19 | 30.80829 | 32.04574 | 27 ft | 7 kts | 188° |
| 2026-04-21 17:19 | 30.80794 | 32.04565 | 27 ft | 2 kts | 197° |
| 2026-04-21 17:20 | 30.80788 | 32.04563 | 27 ft | 0 kts | 197° |
| 2026-04-21 17:20 | 30.80786 | 32.04563 | 27 ft | 0 kts | 196° |
| 2026-04-21 17:20 | 30.80616 | 32.04501 | 28 ft | 79 kts | 196° |
| 2026-04-21 17:21 | 30.79741 | 32.04182 | 52 ft | 173 kts | 198° |
| 2026-04-21 17:21 | 30.78518 | 32.03713 | 851 ft | 192 kts | 199° |
| 2026-04-21 17:21 | 30.77283 | 32.03238 | 2022 ft | 196 kts | 199° |
| 2026-04-21 17:21 | 30.76022 | 32.02586 | 2980 ft | 211 kts | 217° |
| 2026-04-21 17:22 | 30.74961 | 32.01339 | 3880 ft | 232 kts | 235° |
| 2026-04-21 17:22 | 30.73928 | 31.99738 | 4737 ft | 260 kts | 237° |
| 2026-04-21 17:22 | 30.72845 | 31.97994 | 5568 ft | 275 kts | 237° |
| 2026-04-21 17:22 | 30.71707 | 31.96149 | 6483 ft | 287 kts | 237° |
| 2026-04-21 17:23 | 30.70773 | 31.94138 | 7378 ft | 284 kts | 257° |
| 2026-04-21 17:23 | 30.70740 | 31.91919 | 8267 ft | 279 kts | 287° |
| 2026-04-21 17:23 | 30.71545 | 31.89889 | 9149 ft | 281 kts | 302° |
| 2026-04-21 17:23 | 30.72551 | 31.87947 | 10026 ft | 282 kts | 303° |
| 2026-04-21 17:24 | 30.73574 | 31.86015 | 10916 ft | 284 kts | 303° |
| 2026-04-21 17:24 | 30.74611 | 31.84063 | 11793 ft | 286 kts | 303° |
| 2026-04-21 17:24 | 30.75657 | 31.82101 | 12673 ft | 288 kts | 303° |
| 2026-04-21 17:24 | 30.76725 | 31.80107 | 13572 ft | 291 kts | 303° |
| 2026-04-21 17:25 | 30.77785 | 31.78139 | 14433 ft | 293 kts | 303° |
| 2026-04-21 17:25 | 30.78875 | 31.76125 | 15313 ft | 294 kts | 303° |
| 2026-04-21 17:25 | 30.79961 | 31.74138 | 16185 ft | 296 kts | 303° |
| 2026-04-21 17:25 | 30.81071 | 31.72124 | 17071 ft | 299 kts | 303° |
| 2026-04-21 17:26 | 30.82196 | 31.70108 | 17949 ft | 301 kts | 303° |
| 2026-04-21 17:26 | 30.83352 | 31.68050 | 18852 ft | 304 kts | 303° |
| 2026-04-21 17:26 | 30.84507 | 31.66006 | 19733 ft | 307 kts | 303° |
| 2026-04-21 17:26 | 30.85676 | 31.63954 | 20615 ft | 310 kts | 303° |
| 2026-04-21 17:27 | 30.86843 | 31.61839 | 21486 ft | 312 kts | 297° |
| 2026-04-21 17:27 | 30.87495 | 31.59449 | 22266 ft | 316 kts | 282° |
| 2026-04-21 17:27 | 30.87921 | 31.56898 | 23037 ft | 321 kts | 282° |
| 2026-04-21 17:27 | 30.88356 | 31.54342 | 23817 ft | 324 kts | 282° |
| 2026-04-21 17:28 | 30.88790 | 31.51806 | 24621 ft | 326 kts | 282° |
| 2026-04-21 17:28 | 30.89231 | 31.49223 | 25408 ft | 327 kts | 282° |
| 2026-04-21 17:28 | 30.89680 | 31.46605 | 26121 ft | 330 kts | 281° |
| 2026-04-21 17:28 | 30.90124 | 31.44007 | 26817 ft | 332 kts | 281° |
| 2026-04-21 17:29 | 30.90582 | 31.41335 | 27480 ft | 335 kts | 281° |
| 2026-04-21 17:29 | 30.91034 | 31.38695 | 28105 ft | 337 kts | 281° |
| 2026-04-21 17:29 | 30.91494 | 31.36006 | 28687 ft | 340 kts | 281° |
| 2026-04-21 17:29 | 30.91956 | 31.33304 | 29269 ft | 342 kts | 281° |
| 2026-04-21 17:30 | 30.92419 | 31.30598 | 29842 ft | 344 kts | 281° |
| 2026-04-21 17:30 | 30.92891 | 31.27831 | 30394 ft | 346 kts | 281° |
| 2026-04-21 17:30 | 30.93359 | 31.25091 | 30888 ft | 349 kts | 280° |
| 2026-04-21 17:30 | 30.93832 | 31.22319 | 31334 ft | 352 kts | 280° |
| 2026-04-21 17:31 | 30.94314 | 31.19491 | 31824 ft | 354 kts | 280° |
| 2026-04-21 17:31 | 30.94795 | 31.16665 | 32295 ft | 355 kts | 280° |
| 2026-04-21 17:31 | 30.95276 | 31.13836 | 32719 ft | 357 kts | 279° |
| 2026-04-21 17:31 | 30.95763 | 31.10966 | 33131 ft | 359 kts | 280° |
| 2026-04-21 17:32 | 30.96254 | 31.08071 | 33564 ft | 359 kts | 279° |
| 2026-04-21 17:32 | 30.96743 | 31.05187 | 33937 ft | 361 kts | 279° |
| 2026-04-21 17:32 | 30.97230 | 31.02309 | 34303 ft | 361 kts | 279° |
| 2026-04-21 17:32 | 30.97719 | 30.99421 | 34715 ft | 360 kts | 279° |
| 2026-04-21 17:33 | 30.98205 | 30.96543 | 35139 ft | 357 kts | 279° |
| 2026-04-21 17:33 | 30.98690 | 30.93667 | 35564 ft | 355 kts | 279° |
| 2026-04-21 17:33 | 30.99162 | 30.90871 | 36056 ft | 351 kts | 279° |
| 2026-04-21 17:33 | 30.99627 | 30.88105 | 36567 ft | 348 kts | 279° |
| 2026-04-21 17:34 | 31.00091 | 30.85347 | 37010 ft | 345 kts | 278° |
| 2026-04-21 17:34 | 31.00552 | 30.82598 | 37402 ft | 344 kts | 279° |
| 2026-04-21 17:34 | 31.01013 | 30.79848 | 37752 ft | 343 kts | 278° |
| 2026-04-21 17:34 | 31.01465 | 30.77150 | 38074 ft | 341 kts | 278° |
| 2026-04-21 17:35 | 31.01922 | 30.74412 | 38392 ft | 340 kts | 278° |
| 2026-04-21 17:35 | 31.02373 | 30.71712 | 38669 ft | 339 kts | 278° |
| 2026-04-21 17:35 | 31.02826 | 30.68996 | 38901 ft | 339 kts | 278° |
| 2026-04-21 17:35 | 31.03274 | 30.66303 | 39103 ft | 339 kts | 278° |
| 2026-04-21 17:36 | 31.03727 | 30.63573 | 39333 ft | 339 kts | 278° |
| 2026-04-21 17:36 | 31.04172 | 30.60889 | 39511 ft | 339 kts | 278° |
| 2026-04-21 17:36 | 31.04615 | 30.58217 | 39697 ft | 339 kts | 278° |
| 2026-04-21 17:36 | 31.05068 | 30.55483 | 39852 ft | 340 kts | 278° |
| 2026-04-21 17:37 | 31.05514 | 30.52785 | 40006 ft | 340 kts | 278° |
| 2026-04-21 17:37 | 31.05960 | 30.50081 | 40025 ft | 344 kts | 278° |
| 2026-04-21 17:37 | 31.06871 | 30.44542 | 40032 ft | 352 kts | 278° |
| 2026-04-21 17:38 | 31.07806 | 30.38843 | 40029 ft | 359 kts | 278° |
| 2026-04-21 17:38 | 31.08751 | 30.33074 | 40028 ft | 367 kts | 278° |
| 2026-04-21 17:39 | 31.09983 | 30.27235 | 40033 ft | 376 kts | 284° |
| 2026-04-21 17:39 | 31.11607 | 30.21355 | 40035 ft | 382 kts | 284° |
| 2026-04-21 17:40 | 31.13246 | 30.15382 | 40031 ft | 387 kts | 284° |
| 2026-04-21 17:40 | 31.14894 | 30.09357 | 40030 ft | 390 kts | 284° |
| 2026-04-21 17:41 | 31.16542 | 30.03316 | 40036 ft | 390 kts | 284° |
| 2026-04-21 17:41 | 31.18228 | 29.97249 | 40035 ft | 391 kts | 287° |
| 2026-04-21 17:42 | 31.20902 | 29.91635 | 40038 ft | 400 kts | 300° |
| 2026-04-21 17:42 | 31.24198 | 29.86388 | 40033 ft | 401 kts | 300° |
| 2026-04-21 17:43 | 31.27500 | 29.81113 | 40034 ft | 401 kts | 300° |
| 2026-04-21 17:43 | 31.30803 | 29.75825 | 40035 ft | 401 kts | 300° |
| 2026-04-21 17:44 | 31.34102 | 29.70534 | 40036 ft | 402 kts | 300° |
| 2026-04-21 17:44 | 31.37385 | 29.65259 | 40034 ft | 402 kts | 300° |
| 2026-04-21 17:45 | 31.40683 | 29.59953 | 40035 ft | 402 kts | 300° |
| 2026-04-21 17:45 | 31.43976 | 29.54646 | 40032 ft | 402 kts | 300° |
| 2026-04-21 17:46 | 31.47249 | 29.49363 | 40037 ft | 403 kts | 300° |
| 2026-04-21 17:46 | 31.50538 | 29.44045 | 40038 ft | 403 kts | 301° |
| 2026-04-21 17:47 | 31.53834 | 29.38709 | 40036 ft | 403 kts | 300° |
| 2026-04-21 17:47 | 31.57125 | 29.33373 | 40041 ft | 404 kts | 300° |
| 2026-04-21 17:48 | 31.60397 | 29.28052 | 40040 ft | 404 kts | 300° |
| 2026-04-21 17:48 | 31.63694 | 29.22676 | 40043 ft | 405 kts | 300° |
| 2026-04-21 17:49 | 31.66989 | 29.17296 | 40046 ft | 404 kts | 300° |
| 2026-04-21 17:49 | 31.70271 | 29.11929 | 40061 ft | 405 kts | 300° |
| 2026-04-21 17:50 | 31.73578 | 29.06512 | 40045 ft | 406 kts | 300° |
| 2026-04-21 17:50 | 31.76876 | 29.01106 | 40052 ft | 405 kts | 300° |
| 2026-04-21 17:51 | 31.80163 | 28.95711 | 40053 ft | 406 kts | 300° |
| 2026-04-21 17:51 | 31.83449 | 28.90310 | 40054 ft | 406 kts | 300° |
| 2026-04-21 17:52 | 31.86737 | 28.84897 | 40055 ft | 406 kts | 300° |
| 2026-04-21 17:52 | 31.90011 | 28.79499 | 40048 ft | 406 kts | 300° |
| 2026-04-21 17:53 | 31.93294 | 28.74080 | 40053 ft | 406 kts | 300° |
| 2026-04-21 17:53 | 31.96583 | 28.68643 | 40043 ft | 406 kts | 300° |
| 2026-04-21 17:54 | 31.99855 | 28.63227 | 40054 ft | 406 kts | 300° |
| 2026-04-21 17:54 | 32.03135 | 28.57787 | 40042 ft | 407 kts | 301° |
| 2026-04-21 17:55 | 32.06419 | 28.52336 | 40049 ft | 407 kts | 301° |
| 2026-04-21 17:55 | 32.09695 | 28.46888 | 40042 ft | 407 kts | 301° |
| 2026-04-21 17:56 | 32.12977 | 28.41424 | 40051 ft | 407 kts | 301° |
| 2026-04-21 17:56 | 32.16271 | 28.35931 | 40054 ft | 407 kts | 301° |
| 2026-04-21 17:57 | 32.19552 | 28.30451 | 40037 ft | 408 kts | 300° |
| 2026-04-21 17:57 | 32.22834 | 28.24962 | 40047 ft | 408 kts | 300° |
| 2026-04-21 17:58 | 32.26126 | 28.19448 | 40041 ft | 409 kts | 300° |
| 2026-04-21 17:58 | 32.29407 | 28.13944 | 40041 ft | 409 kts | 301° |
| 2026-04-21 17:59 | 32.32691 | 28.08428 | 40040 ft | 409 kts | 301° |
| 2026-04-21 17:59 | 32.35954 | 28.02938 | 40053 ft | 409 kts | 301° |
| 2026-04-21 18:00 | 32.39231 | 27.97418 | 40046 ft | 409 kts | 301° |
| 2026-04-21 18:00 | 32.42510 | 27.91886 | 40048 ft | 409 kts | 301° |
| 2026-04-21 18:01 | 32.45773 | 27.86372 | 40043 ft | 410 kts | 301° |
| 2026-04-21 18:01 | 32.49071 | 27.80791 | 40043 ft | 410 kts | 301° |
| 2026-04-21 18:02 | 32.52334 | 27.75262 | 40058 ft | 410 kts | 301° |
| 2026-04-21 18:02 | 32.55587 | 27.69740 | 40053 ft | 410 kts | 301° |
| 2026-04-21 18:03 | 32.58842 | 27.64208 | 40050 ft | 411 kts | 301° |
| 2026-04-21 18:03 | 32.62113 | 27.58639 | 40055 ft | 411 kts | 301° |
| 2026-04-21 18:04 | 32.65374 | 27.53080 | 40051 ft | 410 kts | 301° |
| 2026-04-21 18:04 | 32.68625 | 27.47528 | 40053 ft | 411 kts | 301° |
| 2026-04-21 18:05 | 32.71874 | 27.41971 | 40054 ft | 411 kts | 301° |
| 2026-04-21 18:05 | 32.75114 | 27.36407 | 40048 ft | 411 kts | 301° |
| 2026-04-21 18:06 | 32.78377 | 27.30796 | 40053 ft | 411 kts | 301° |
| 2026-04-21 18:06 | 32.81617 | 27.25218 | 40052 ft | 411 kts | 301° |
| 2026-04-21 18:07 | 32.84849 | 27.19644 | 40059 ft | 411 kts | 301° |
| 2026-04-21 18:07 | 32.88088 | 27.14051 | 40042 ft | 411 kts | 301° |
| 2026-04-21 18:08 | 32.91350 | 27.08407 | 40054 ft | 411 kts | 301° |
| 2026-04-21 18:08 | 32.94588 | 27.02797 | 40053 ft | 412 kts | 301° |
| 2026-04-21 18:09 | 32.97831 | 26.97170 | 40051 ft | 412 kts | 301° |
| 2026-04-21 18:09 | 33.01075 | 26.91521 | 40050 ft | 412 kts | 301° |
| 2026-04-21 18:10 | 33.04292 | 26.85910 | 40046 ft | 411 kts | 301° |
| 2026-04-21 18:10 | 33.07515 | 26.80281 | 40046 ft | 411 kts | 301° |
| 2026-04-21 18:11 | 33.10749 | 26.74622 | 40047 ft | 411 kts | 301° |
| 2026-04-21 18:11 | 33.13971 | 26.68977 | 40046 ft | 411 kts | 301° |
| 2026-04-21 18:12 | 33.17170 | 26.63364 | 40046 ft | 411 kts | 301° |
| 2026-04-21 18:12 | 33.20388 | 26.57707 | 40045 ft | 412 kts | 301° |
| 2026-04-21 18:13 | 33.23621 | 26.52017 | 40040 ft | 412 kts | 301° |
| 2026-04-21 18:13 | 33.26808 | 26.46400 | 40042 ft | 412 kts | 301° |
| 2026-04-21 18:14 | 33.31617 | 26.37908 | 40043 ft | 412 kts | 301° |
| 2026-04-21 18:15 | 33.34820 | 26.32239 | 40044 ft | 412 kts | 301° |
| 2026-04-21 18:15 | 33.38045 | 26.26523 | 40041 ft | 412 kts | 301° |
| 2026-04-21 18:16 | 33.41237 | 26.20858 | 40038 ft | 411 kts | 301° |
| 2026-04-21 18:16 | 33.44411 | 26.15216 | 40039 ft | 411 kts | 301° |
| 2026-04-21 18:17 | 33.47613 | 26.09514 | 40040 ft | 411 kts | 301° |
| 2026-04-21 18:17 | 33.50803 | 26.03825 | 40037 ft | 411 kts | 301° |
| 2026-04-21 18:18 | 33.53977 | 25.98157 | 40036 ft | 410 kts | 301° |
| 2026-04-21 18:18 | 33.57159 | 25.92465 | 40039 ft | 410 kts | 301° |
| 2026-04-21 18:19 | 33.60319 | 25.86804 | 40040 ft | 410 kts | 301° |
| 2026-04-21 18:19 | 33.63492 | 25.81112 | 40030 ft | 410 kts | 301° |
| 2026-04-21 18:20 | 33.66670 | 25.75400 | 40029 ft | 411 kts | 301° |
| 2026-04-21 18:20 | 33.69850 | 25.69677 | 40030 ft | 411 kts | 301° |
| 2026-04-21 18:21 | 33.73037 | 25.63931 | 40029 ft | 412 kts | 301° |
| 2026-04-21 18:21 | 33.76208 | 25.58207 | 40029 ft | 412 kts | 301° |
| 2026-04-21 18:22 | 33.79367 | 25.52495 | 40028 ft | 411 kts | 301° |
| 2026-04-21 18:22 | 33.82534 | 25.46760 | 40028 ft | 411 kts | 301° |
| 2026-04-21 18:23 | 33.85696 | 25.41023 | 40031 ft | 410 kts | 301° |
| 2026-04-21 18:23 | 33.88857 | 25.35282 | 40025 ft | 410 kts | 301° |
| 2026-04-21 18:24 | 33.92019 | 25.29528 | 40029 ft | 411 kts | 300° |
| 2026-04-21 18:24 | 33.95170 | 25.23786 | 40028 ft | 411 kts | 301° |
| 2026-04-21 18:25 | 33.98320 | 25.18036 | 40026 ft | 410 kts | 301° |
| 2026-04-21 18:25 | 34.01556 | 25.12361 | 40028 ft | 411 kts | 303° |
| 2026-04-21 18:26 | 34.04901 | 25.06810 | 40030 ft | 412 kts | 303° |
| 2026-04-21 18:26 | 34.08288 | 25.01178 | 40029 ft | 412 kts | 303° |
| 2026-04-21 18:27 | 34.11657 | 24.95565 | 40032 ft | 413 kts | 303° |
| 2026-04-21 18:27 | 34.15027 | 24.89940 | 40025 ft | 413 kts | 303° |
| 2026-04-21 18:28 | 34.18419 | 24.84270 | 40020 ft | 413 kts | 303° |
| 2026-04-21 18:28 | 34.21784 | 24.78636 | 40028 ft | 412 kts | 303° |
| 2026-04-21 18:29 | 34.25120 | 24.73042 | 40022 ft | 412 kts | 303° |
| 2026-04-21 18:29 | 34.28495 | 24.67373 | 40018 ft | 412 kts | 303° |
| 2026-04-21 18:30 | 34.31830 | 24.61761 | 40024 ft | 412 kts | 303° |
| 2026-04-21 18:30 | 34.35181 | 24.56115 | 40026 ft | 412 kts | 303° |
| 2026-04-21 18:31 | 34.38505 | 24.50505 | 40022 ft | 412 kts | 303° |
| 2026-04-21 18:31 | 34.41850 | 24.44852 | 40021 ft | 412 kts | 303° |
| 2026-04-21 18:32 | 34.45183 | 24.39208 | 40024 ft | 412 kts | 303° |
| 2026-04-21 18:32 | 34.48518 | 24.33553 | 40020 ft | 413 kts | 303° |
| 2026-04-21 18:33 | 34.51843 | 24.27905 | 40019 ft | 413 kts | 303° |
| 2026-04-21 18:33 | 34.55184 | 24.22223 | 40019 ft | 413 kts | 303° |
| 2026-04-21 18:34 | 34.58500 | 24.16573 | 40022 ft | 413 kts | 303° |
| 2026-04-21 18:34 | 34.61837 | 24.10878 | 40014 ft | 413 kts | 303° |
| 2026-04-21 18:35 | 34.64599 | 24.06161 | 40019 ft | 412 kts | 303° |
| 2026-04-21 18:35 | 34.68471 | 23.99532 | 40013 ft | 413 kts | 303° |
| 2026-04-21 18:36 | 34.71801 | 23.93823 | 40013 ft | 412 kts | 303° |
| 2026-04-21 18:36 | 34.75093 | 23.88169 | 40016 ft | 412 kts | 303° |
| 2026-04-21 18:37 | 34.78409 | 23.82466 | 40015 ft | 413 kts | 303° |
| 2026-04-21 18:37 | 34.81735 | 23.76737 | 40013 ft | 413 kts | 303° |
| 2026-04-21 18:38 | 34.85024 | 23.71061 | 40013 ft | 413 kts | 303° |
| 2026-04-21 18:38 | 34.88332 | 23.65345 | 40013 ft | 413 kts | 303° |
| 2026-04-21 18:39 | 34.91643 | 23.59612 | 40009 ft | 413 kts | 303° |
| 2026-04-21 18:39 | 34.94939 | 23.53898 | 40012 ft | 413 kts | 303° |
| 2026-04-21 18:40 | 34.98235 | 23.48175 | 40010 ft | 413 kts | 303° |
| 2026-04-21 18:40 | 35.00994 | 23.43377 | 40010 ft | 413 kts | 303° |
| 2026-04-21 18:41 | 35.04827 | 23.36699 | 40009 ft | 414 kts | 303° |
| 2026-04-21 18:41 | 35.08117 | 23.30958 | 40001 ft | 414 kts | 303° |
| 2026-04-21 18:42 | 35.11430 | 23.25168 | 40002 ft | 413 kts | 303° |
| 2026-04-21 18:42 | 35.14726 | 23.19397 | 39999 ft | 414 kts | 303° |
| 2026-04-21 18:43 | 35.18010 | 23.13639 | 40003 ft | 414 kts | 302° |
| 2026-04-21 18:43 | 35.21293 | 23.07871 | 39996 ft | 414 kts | 302° |
| 2026-04-21 18:44 | 35.24588 | 23.02074 | 40008 ft | 414 kts | 302° |
| 2026-04-21 18:44 | 35.27864 | 22.96300 | 40000 ft | 414 kts | 302° |
| 2026-04-21 18:45 | 35.31132 | 22.90533 | 40001 ft | 413 kts | 303° |
| 2026-04-21 18:45 | 35.34413 | 22.84731 | 40000 ft | 413 kts | 303° |
| 2026-04-21 18:46 | 35.37685 | 22.78937 | 39992 ft | 413 kts | 303° |
| 2026-04-21 18:46 | 35.40958 | 22.73131 | 39999 ft | 413 kts | 303° |
| 2026-04-21 18:47 | 35.44229 | 22.67319 | 39998 ft | 413 kts | 303° |
| 2026-04-21 18:47 | 35.47499 | 22.61498 | 39992 ft | 414 kts | 303° |
| 2026-04-21 18:48 | 35.50769 | 22.55669 | 39991 ft | 414 kts | 303° |
| 2026-04-21 18:48 | 35.53031 | 22.51631 | 39995 ft | 414 kts | 303° |
| 2026-04-21 18:49 | 35.56298 | 22.45801 | 39992 ft | 414 kts | 303° |
| 2026-04-21 18:49 | 35.59033 | 22.40909 | 39986 ft | 414 kts | 303° |
| 2026-04-21 18:50 | 35.62825 | 22.34102 | 40002 ft | 414 kts | 302° |
| 2026-04-21 18:50 | 35.66063 | 22.28281 | 39999 ft | 415 kts | 302° |
| 2026-04-21 18:51 | 35.69319 | 22.22418 | 40007 ft | 415 kts | 302° |
| 2026-04-21 18:51 | 35.72585 | 22.16528 | 40013 ft | 415 kts | 303° |
| 2026-04-21 18:52 | 35.75823 | 22.10681 | 40015 ft | 415 kts | 303° |
| 2026-04-21 18:52 | 35.79076 | 22.04794 | 40011 ft | 415 kts | 303° |
| 2026-04-21 18:53 | 35.82330 | 21.98898 | 40009 ft | 415 kts | 303° |
| 2026-04-21 18:53 | 35.85565 | 21.93025 | 40010 ft | 415 kts | 303° |
| 2026-04-21 18:54 | 35.88810 | 21.87125 | 40012 ft | 415 kts | 303° |
| 2026-04-21 18:54 | 35.92031 | 21.81259 | 40009 ft | 415 kts | 303° |
| 2026-04-21 18:55 | 35.94723 | 21.76347 | 40010 ft | 414 kts | 303° |
| 2026-04-21 18:55 | 35.98489 | 21.69466 | 40005 ft | 413 kts | 303° |
| 2026-04-21 18:56 | 36.01692 | 21.63602 | 39999 ft | 413 kts | 303° |
| 2026-04-21 18:56 | 36.04892 | 21.57732 | 40002 ft | 413 kts | 303° |
| 2026-04-21 18:57 | 36.08102 | 21.51833 | 39993 ft | 413 kts | 303° |
| 2026-04-21 18:57 | 36.11307 | 21.45933 | 39996 ft | 414 kts | 303° |
| 2026-04-21 18:58 | 36.14533 | 21.39985 | 39997 ft | 414 kts | 303° |
| 2026-04-21 18:58 | 36.17715 | 21.34107 | 39997 ft | 413 kts | 302° |
| 2026-04-21 18:59 | 36.20908 | 21.28200 | 39999 ft | 413 kts | 302° |
| 2026-04-21 18:59 | 36.24102 | 21.22278 | 40004 ft | 412 kts | 302° |
| 2026-04-21 19:00 | 36.27268 | 21.16399 | 39985 ft | 412 kts | 302° |
| 2026-04-21 19:00 | 36.30464 | 21.10455 | 39990 ft | 411 kts | 302° |
| 2026-04-21 19:01 | 36.33628 | 21.04560 | 39990 ft | 411 kts | 302° |
| 2026-04-21 19:01 | 36.36768 | 20.98698 | 39986 ft | 411 kts | 302° |
| 2026-04-21 19:02 | 36.39940 | 20.92768 | 39998 ft | 411 kts | 302° |
| 2026-04-21 19:02 | 36.43093 | 20.86862 | 40000 ft | 410 kts | 302° |
| 2026-04-21 19:03 | 36.46228 | 20.80981 | 39981 ft | 411 kts | 302° |
| 2026-04-21 19:03 | 36.49409 | 20.75003 | 39989 ft | 410 kts | 302° |
| 2026-04-21 19:04 | 36.52555 | 20.69078 | 39988 ft | 410 kts | 302° |
| 2026-04-21 19:04 | 36.55694 | 20.63158 | 39984 ft | 410 kts | 302° |
| 2026-04-21 19:05 | 36.58825 | 20.57242 | 39984 ft | 409 kts | 302° |
| 2026-04-21 19:05 | 36.61952 | 20.51323 | 39993 ft | 409 kts | 302° |
| 2026-04-21 19:06 | 36.65072 | 20.45407 | 39981 ft | 409 kts | 302° |
| 2026-04-21 19:06 | 36.68191 | 20.39482 | 39985 ft | 408 kts | 302° |
| 2026-04-21 19:07 | 36.71291 | 20.33583 | 39982 ft | 409 kts | 302° |
| 2026-04-21 19:07 | 36.74412 | 20.27634 | 39987 ft | 408 kts | 302° |
| 2026-04-21 19:08 | 36.77504 | 20.21731 | 39987 ft | 408 kts | 302° |
| 2026-04-21 19:08 | 36.80609 | 20.15791 | 39991 ft | 408 kts | 302° |
| 2026-04-21 19:09 | 36.83684 | 20.09897 | 39985 ft | 407 kts | 302° |
| 2026-04-21 19:09 | 36.86730 | 20.04052 | 39990 ft | 407 kts | 302° |
| 2026-04-21 19:10 | 36.89796 | 19.98155 | 39985 ft | 406 kts | 302° |
| 2026-04-21 19:10 | 36.92863 | 19.92246 | 39994 ft | 406 kts | 302° |
| 2026-04-21 19:11 | 36.95929 | 19.86330 | 39980 ft | 406 kts | 302° |
| 2026-04-21 19:11 | 36.98990 | 19.80411 | 39984 ft | 405 kts | 302° |
| 2026-04-21 19:12 | 37.02073 | 19.74441 | 39964 ft | 406 kts | 302° |
| 2026-04-21 19:12 | 37.05112 | 19.68546 | 39972 ft | 405 kts | 302° |
| 2026-04-21 19:13 | 37.08181 | 19.62580 | 39977 ft | 405 kts | 302° |
| 2026-04-21 19:13 | 37.11227 | 19.56648 | 39965 ft | 405 kts | 302° |
| 2026-04-21 19:14 | 37.14279 | 19.50695 | 39963 ft | 405 kts | 302° |
| 2026-04-21 19:14 | 37.17311 | 19.44770 | 39961 ft | 404 kts | 302° |
| 2026-04-21 19:15 | 37.20326 | 19.38869 | 39971 ft | 404 kts | 302° |
| 2026-04-21 19:15 | 37.23370 | 19.32899 | 39956 ft | 404 kts | 301° |
| 2026-04-21 19:16 | 37.26397 | 19.26951 | 39952 ft | 404 kts | 301° |
| 2026-04-21 19:16 | 37.29409 | 19.21022 | 39956 ft | 404 kts | 301° |
| 2026-04-21 19:17 | 37.33928 | 19.12108 | 39948 ft | 403 kts | 301° |
| 2026-04-21 19:17 | 37.36945 | 19.06143 | 39945 ft | 403 kts | 301° |
| 2026-04-21 19:18 | 37.39929 | 19.00239 | 39943 ft | 403 kts | 301° |
| 2026-04-21 19:18 | 37.43058 | 18.94365 | 39942 ft | 404 kts | 302° |
| 2026-04-21 19:19 | 37.46191 | 18.88511 | 39942 ft | 403 kts | 302° |
| 2026-04-21 19:19 | 37.49309 | 18.82676 | 39947 ft | 403 kts | 302° |
| 2026-04-21 19:20 | 37.52437 | 18.76808 | 39953 ft | 403 kts | 302° |
| 2026-04-21 19:20 | 37.55557 | 18.70946 | 39948 ft | 403 kts | 302° |
| 2026-04-21 19:21 | 37.58670 | 18.65087 | 39950 ft | 403 kts | 302° |
| 2026-04-21 19:21 | 37.61801 | 18.59181 | 39943 ft | 404 kts | 302° |
| 2026-04-21 19:22 | 37.64928 | 18.53273 | 39936 ft | 404 kts | 302° |
| 2026-04-21 19:22 | 37.68046 | 18.47373 | 39937 ft | 404 kts | 302° |
| 2026-04-21 19:23 | 37.71154 | 18.41480 | 39942 ft | 404 kts | 302° |
| 2026-04-21 19:23 | 37.74253 | 18.35592 | 39936 ft | 404 kts | 302° |
| 2026-04-21 19:24 | 37.77371 | 18.29659 | 39931 ft | 405 kts | 302° |
| 2026-04-21 19:24 | 37.80470 | 18.23752 | 39771 ft | 402 kts | 302° |
| 2026-04-21 19:25 | 37.81987 | 18.20857 | 39291 ft | 396 kts | 302° |
| 2026-04-21 19:25 | 37.83497 | 18.17973 | 38751 ft | 390 kts | 302° |
| 2026-04-21 19:25 | 37.84995 | 18.15109 | 38226 ft | 384 kts | 302° |
| 2026-04-21 19:25 | 37.86456 | 18.12313 | 37723 ft | 378 kts | 302° |
| 2026-04-21 19:26 | 37.87891 | 18.09565 | 37235 ft | 372 kts | 302° |
| 2026-04-21 19:26 | 37.89303 | 18.06858 | 36759 ft | 367 kts | 302° |
| 2026-04-21 19:26 | 37.90690 | 18.04197 | 36327 ft | 361 kts | 302° |
| 2026-04-21 19:26 | 37.92066 | 18.01554 | 35902 ft | 359 kts | 302° |
| 2026-04-21 19:27 | 37.93439 | 17.98916 | 35425 ft | 358 kts | 302° |
| 2026-04-21 19:27 | 37.94804 | 17.96291 | 34964 ft | 359 kts | 303° |
| 2026-04-21 19:27 | 37.96174 | 17.93652 | 34485 ft | 360 kts | 303° |
| 2026-04-21 19:27 | 37.97549 | 17.91003 | 33987 ft | 360 kts | 303° |
| 2026-04-21 19:28 | 37.98933 | 17.88334 | 33528 ft | 360 kts | 303° |
| 2026-04-21 19:28 | 38.00304 | 17.85689 | 33045 ft | 360 kts | 303° |
| 2026-04-21 19:28 | 38.01672 | 17.83046 | 32568 ft | 357 kts | 303° |
| 2026-04-21 19:28 | 38.03026 | 17.80430 | 32095 ft | 355 kts | 303° |
| 2026-04-21 19:29 | 38.04375 | 17.77820 | 31627 ft | 352 kts | 303° |
| 2026-04-21 19:29 | 38.05712 | 17.75231 | 31156 ft | 349 kts | 303° |
| 2026-04-21 19:29 | 38.07038 | 17.72664 | 30702 ft | 347 kts | 303° |
| 2026-04-21 19:29 | 38.08345 | 17.70128 | 30233 ft | 346 kts | 303° |
| 2026-04-21 19:30 | 38.09661 | 17.67574 | 29769 ft | 343 kts | 303° |
| 2026-04-21 19:30 | 38.10972 | 17.65030 | 29317 ft | 341 kts | 303° |
| 2026-04-21 19:30 | 38.12278 | 17.62491 | 28863 ft | 340 kts | 303° |
| 2026-04-21 19:30 | 38.13547 | 17.60022 | 28427 ft | 338 kts | 303° |
| 2026-04-21 19:31 | 38.14835 | 17.57515 | 27973 ft | 336 kts | 303° |
| 2026-04-21 19:31 | 38.16110 | 17.55032 | 27530 ft | 333 kts | 303° |
| 2026-04-21 19:31 | 38.17361 | 17.52592 | 27093 ft | 332 kts | 303° |
| 2026-04-21 19:31 | 38.18634 | 17.50109 | 26645 ft | 331 kts | 303° |
| 2026-04-21 19:32 | 38.19870 | 17.47696 | 26215 ft | 329 kts | 303° |
| 2026-04-21 19:32 | 38.21130 | 17.45234 | 25768 ft | 328 kts | 303° |
| 2026-04-21 19:32 | 38.22353 | 17.42842 | 25341 ft | 326 kts | 303° |
| 2026-04-21 19:32 | 38.23601 | 17.40399 | 24908 ft | 325 kts | 303° |
| 2026-04-21 19:33 | 38.24415 | 17.38805 | 24619 ft | 324 kts | 303° |
| 2026-04-21 19:33 | 38.26039 | 17.35624 | 24052 ft | 322 kts | 303° |
| 2026-04-21 19:33 | 38.27267 | 17.33216 | 23614 ft | 321 kts | 302° |
| 2026-04-21 19:33 | 38.28483 | 17.30829 | 23190 ft | 320 kts | 302° |
| 2026-04-21 19:34 | 38.29685 | 17.28467 | 22766 ft | 318 kts | 302° |
| 2026-04-21 19:34 | 38.30888 | 17.26103 | 22346 ft | 316 kts | 302° |
| 2026-04-21 19:34 | 38.32071 | 17.23776 | 21925 ft | 315 kts | 302° |
| 2026-04-21 19:34 | 38.33264 | 17.21428 | 21511 ft | 313 kts | 302° |
| 2026-04-21 19:35 | 38.34433 | 17.19125 | 21099 ft | 311 kts | 303° |
| 2026-04-21 19:35 | 38.36769 | 17.14517 | 20277 ft | 307 kts | 302° |
| 2026-04-21 19:35 | 38.37928 | 17.12231 | 19872 ft | 306 kts | 302° |
| 2026-04-21 19:36 | 38.39074 | 17.09967 | 19465 ft | 304 kts | 302° |
| 2026-04-21 19:36 | 38.40218 | 17.07705 | 19066 ft | 303 kts | 302° |
| 2026-04-21 19:36 | 38.41355 | 17.05456 | 18663 ft | 301 kts | 302° |
| 2026-04-21 19:36 | 38.42487 | 17.03216 | 18258 ft | 300 kts | 302° |
| 2026-04-21 19:37 | 38.43596 | 17.01018 | 17871 ft | 298 kts | 302° |
| 2026-04-21 19:37 | 38.44718 | 16.98795 | 17474 ft | 296 kts | 302° |
| 2026-04-21 19:37 | 38.45823 | 16.96602 | 17146 ft | 292 kts | 302° |
| 2026-04-21 19:37 | 38.46939 | 16.94387 | 16751 ft | 295 kts | 302° |
| 2026-04-21 19:38 | 38.48041 | 16.92198 | 16363 ft | 292 kts | 302° |
| 2026-04-21 19:38 | 38.49123 | 16.90048 | 15980 ft | 291 kts | 302° |
| 2026-04-21 19:38 | 38.49855 | 16.88592 | 15717 ft | 290 kts | 302° |
| 2026-04-21 19:38 | 38.51302 | 16.85713 | 15207 ft | 288 kts | 302° |
| 2026-04-21 19:39 | 38.52378 | 16.83569 | 14831 ft | 287 kts | 302° |
| 2026-04-21 19:39 | 38.53455 | 16.81422 | 14450 ft | 285 kts | 302° |
| 2026-04-21 19:39 | 38.54521 | 16.79297 | 14081 ft | 285 kts | 302° |
| 2026-04-21 19:39 | 38.55583 | 16.77178 | 13698 ft | 283 kts | 302° |
| 2026-04-21 19:40 | 38.56644 | 16.75057 | 13319 ft | 281 kts | 302° |
| 2026-04-21 19:40 | 38.57692 | 16.72963 | 12955 ft | 281 kts | 302° |
| 2026-04-21 19:40 | 38.58740 | 16.70870 | 12583 ft | 279 kts | 302° |
| 2026-04-21 19:40 | 38.59793 | 16.68761 | 12208 ft | 278 kts | 302° |
| 2026-04-21 19:41 | 38.60825 | 16.66697 | 11831 ft | 277 kts | 302° |
| 2026-04-21 19:41 | 38.61866 | 16.64614 | 11479 ft | 275 kts | 303° |
| 2026-04-21 19:41 | 38.63077 | 16.62731 | 11115 ft | 275 kts | 313° |
| 2026-04-21 19:41 | 38.64413 | 16.60987 | 10750 ft | 274 kts | 313° |
| 2026-04-21 19:42 | 38.65749 | 16.59238 | 10384 ft | 273 kts | 314° |
| 2026-04-21 19:42 | 38.67237 | 16.57740 | 9886 ft | 278 kts | 329° |
| 2026-04-21 19:42 | 38.69099 | 16.56945 | 9223 ft | 285 kts | 351° |
| 2026-04-21 19:42 | 38.71057 | 16.57076 | 8830 ft | 284 kts | 10° |
| 2026-04-21 19:43 | 38.72894 | 16.57972 | 8525 ft | 280 kts | 25° |
| 2026-04-21 19:43 | 38.74581 | 16.59255 | 8128 ft | 282 kts | 29° |
| 2026-04-21 19:43 | 38.76291 | 16.60522 | 7659 ft | 283 kts | 25° |
| 2026-04-21 19:43 | 38.78036 | 16.61625 | 7033 ft | 284 kts | 22° |
| 2026-04-21 19:44 | 38.79861 | 16.62595 | 6399 ft | 283 kts | 18° |
| 2026-04-21 19:44 | 38.81737 | 16.63369 | 5792 ft | 279 kts | 9° |
| 2026-04-21 19:44 | 38.83611 | 16.63271 | 5294 ft | 268 kts | 342° |
| 2026-04-21 19:44 | 38.85183 | 16.62091 | 4888 ft | 257 kts | 315° |
| 2026-04-21 19:45 | 38.86139 | 16.60243 | 4516 ft | 249 kts | 291° |
| 2026-04-21 19:45 | 38.86510 | 16.58104 | 4261 ft | 238 kts | 280° |
| 2026-04-21 19:45 | 38.86752 | 16.56076 | 4150 ft | 226 kts | 281° |
| 2026-04-21 19:45 | 38.86993 | 16.54119 | 4010 ft | 215 kts | 280° |
| 2026-04-21 19:46 | 38.87226 | 16.52225 | 3691 ft | 215 kts | 280° |
| 2026-04-21 19:46 | 38.87453 | 16.50352 | 3384 ft | 214 kts | 280° |
| 2026-04-21 19:46 | 38.87664 | 16.48570 | 3394 ft | 188 kts | 280° |
| 2026-04-21 19:46 | 38.87856 | 16.46959 | 3211 ft | 177 kts | 281° |
| 2026-04-21 19:47 | 38.88034 | 16.45460 | 3020 ft | 163 kts | 281° |
| 2026-04-21 19:47 | 38.88200 | 16.44061 | 2825 ft | 151 kts | 281° |
| 2026-04-21 19:47 | 38.88354 | 16.42765 | 2624 ft | 140 kts | 281° |
| 2026-04-21 19:47 | 38.88489 | 16.41616 | 2449 ft | 124 kts | 281° |
| 2026-04-21 19:48 | 38.88621 | 16.40513 | 2276 ft | 126 kts | 281° |
| 2026-04-21 19:48 | 38.88752 | 16.39408 | 2126 ft | 123 kts | 282° |
| 2026-04-21 19:48 | 38.88882 | 16.38324 | 1958 ft | 124 kts | 281° |
| 2026-04-21 19:48 | 38.89011 | 16.37230 | 1801 ft | 124 kts | 281° |
| 2026-04-21 19:49 | 38.89136 | 16.36136 | 1637 ft | 124 kts | 281° |
| 2026-04-21 19:49 | 38.89260 | 16.35039 | 1476 ft | 124 kts | 281° |
| 2026-04-21 19:49 | 38.89385 | 16.33935 | 1319 ft | 124 kts | 280° |
| 2026-04-21 19:49 | 38.89518 | 16.32828 | 1159 ft | 124 kts | 280° |
| 2026-04-21 19:50 | 38.89608 | 16.32094 | 1053 ft | 125 kts | 279° |
| 2026-04-21 19:50 | 38.89782 | 16.30621 | 831 ft | 125 kts | 279° |
| 2026-04-21 19:50 | 38.89909 | 16.29523 | 668 ft | 125 kts | 278° |
| 2026-04-21 19:50 | 38.90042 | 16.28414 | 495 ft | 125 kts | 278° |
| 2026-04-21 19:51 | 38.90178 | 16.27313 | 314 ft | 125 kts | 277° |
| 2026-04-21 19:51 | 38.90307 | 16.26208 | 134 ft | 125 kts | 277° |
| 2026-04-21 19:51 | 38.90433 | 16.25137 | 42 ft | 111 kts | 278° |
| 2026-04-21 19:51 | 38.90526 | 16.24343 | 32 ft | 62 kts | 278° |
| 2026-04-21 19:52 | 38.90583 | 16.23877 | 28 ft | 27 kts | 280° |
| 2026-04-21 19:52 | 38.90615 | 16.23700 | 26 ft | 18 kts | 294° |
| 2026-04-21 19:52 | 38.90656 | 16.23615 | 25 ft | 11 kts | 307° |
| 2026-04-21 19:52 | 38.90701 | 16.23544 | 25 ft | 9 kts | 308° |
| 2026-04-21 19:53 | 38.90737 | 16.23495 | 26 ft | 1 kts | 324° |
| 2026-04-21 19:53 | 38.90743 | 16.23490 | 26 ft | 0 kts | 328° |
| 2026-04-21 19:55 | 38.90755 | 16.23483 | 26 ft | 4 kts | 341° |
| 2026-04-21 19:55 | 38.90794 | 16.23485 | 26 ft | 7 kts | 24° |
| 2026-04-21 19:55 | 38.90835 | 16.23539 | 28 ft | 10 kts | 74° |
| 2026-04-21 19:56 | 38.90828 | 16.23639 | 28 ft | 11 kts | 103° |
| 2026-04-21 19:56 | 38.90818 | 16.23748 | 28 ft | 7 kts | 98° |
| 2026-04-21 19:56 | 38.90810 | 16.23822 | 29 ft | 8 kts | 98° |
| 2026-04-21 19:56 | 38.90799 | 16.23911 | 30 ft | 10 kts | 97° |
| 2026-04-21 19:57 | 38.90790 | 16.23985 | 31 ft | 6 kts | 98° |
| 2026-04-21 19:57 | 38.90785 | 16.24036 | 31 ft | 6 kts | 97° |
| 2026-04-21 19:57 | 38.90777 | 16.24102 | 32 ft | 8 kts | 98° |
| 2026-04-21 19:57 | 38.90791 | 16.24182 | 34 ft | 10 kts | 48° |
| 2026-04-21 19:58 | 38.90830 | 16.24264 | 36 ft | 11 kts | 82° |
| 2026-04-21 19:58 | 38.90819 | 16.24371 | 37 ft | 13 kts | 99° |
| 2026-04-21 19:58 | 38.90803 | 16.24499 | 39 ft | 15 kts | 98° |
| 2026-04-21 19:58 | 38.90787 | 16.24637 | 40 ft | 15 kts | 98° |
| 2026-04-21 19:59 | 38.90773 | 16.24770 | 42 ft | 12 kts | 99° |
| 2026-04-21 19:59 | 38.90761 | 16.24876 | 42 ft | 13 kts | 98° |
| 2026-04-21 19:59 | 38.90746 | 16.25005 | 42 ft | 15 kts | 99° |
| 2026-04-21 19:59 | 38.90731 | 16.25129 | 41 ft | 13 kts | 98° |
| 2026-04-21 20:00 | 38.90767 | 16.25244 | 42 ft | 2 kts | 4° |
| 2026-04-21 20:00 | 38.90791 | 16.25249 | 42 ft | 2 kts | 15° |
| 2026-04-21 20:01 | 38.90795 | 16.25272 | 42 ft | 3 kts | 97° |
| 2026-04-21 20:01 | 38.90794 | 16.25281 | 43 ft | 0 kts | 98° |